sensor_id;sensor_type;location;lat;lon;timestamp;P1;durP1;ratioP1;P2;durP2;ratioP2
3066;SDS011;1544;48.834;9.194;2023-06-19T00:01:35;8.77;;;8.17;;
3066;SDS011;1544;48.834;9.194;2023-06-19T00:04:11;8.87;;;8.17;;
3066;SDS011;1544;48.834;9.194;2023-06-19T00:06:47;8.70;;;8.00;;
3066;SDS011;1544;48.834;9.194;2023-06-19T00:09:23;8.67;;;8.10;;
3066;SDS011;1544;48.834;9.194;2023-06-19T00:11:59;9.30;;;8.70;;
3066;SDS011;1544;48.834;9.194;2023-06-19T00:14:36;8.13;;;7.63;;
3066;SDS011;1544;48.834;9.194;2023-06-19T00:17:12;8.60;;;8.20;;
3066;SDS011;1544;48.834;9.194;2023-06-19T00:19:52;8.90;;;8.40;;
3066;SDS011;1544;48.834;9.194;2023-06-19T00:22:28;9.40;;;8.80;;
3066;SDS011;1544;48.834;9.194;2023-06-19T00:25:04;9.40;;;8.80;;
3066;SDS011;1544;48.834;9.194;2023-06-19T00:27:40;9.10;;;8.50;;
3066;SDS011;1544;48.834;9.194;2023-06-19T00:30:16;8.50;;;8.00;;
3066;SDS011;1544;48.834;9.194;2023-06-19T00:32:53;8.20;;;7.63;;
3066;SDS011;1544;48.834;9.194;2023-06-19T00:35:29;9.53;;;8.83;;
3066;SDS011;1544;48.834;9.194;2023-06-19T00:38:05;9.27;;;8.67;;
3066;SDS011;1544;48.834;9.194;2023-06-19T00:40:41;9.50;;;8.90;;
3066;SDS011;1544;48.834;9.194;2023-06-19T00:43:17;8.50;;;8.00;;
3066;SDS011;1544;48.834;9.194;2023-06-19T00:45:53;9.00;;;8.40;;
3066;SDS011;1544;48.834;9.194;2023-06-19T00:48:31;8.67;;;8.17;;
3066;SDS011;1544;48.834;9.194;2023-06-19T00:51:09;9.10;;;8.50;;
3066;SDS011;1544;48.834;9.194;2023-06-19T00:53:46;9.27;;;8.67;;
3066;SDS011;1544;48.834;9.194;2023-06-19T00:56:22;9.47;;;8.87;;
3066;SDS011;1544;48.834;9.194;2023-06-19T00:58:58;9.30;;;8.70;;
3066;SDS011;1544;48.834;9.194;2023-06-19T01:01:34;9.50;;;8.80;;
3066;SDS011;1544;48.834;9.194;2023-06-19T01:04:11;8.90;;;8.30;;
3066;SDS011;1544;48.834;9.194;2023-06-19T01:06:55;9.20;;;8.60;;
3066;SDS011;1544;48.834;9.194;2023-06-19T01:09:48;8.17;;;7.70;;
3066;SDS011;1544;48.834;9.194;2023-06-19T01:12:32;9.70;;;8.80;;
3066;SDS011;1544;48.834;9.194;2023-06-19T01:15:12;9.27;;;8.67;;
3066;SDS011;1544;48.834;9.194;2023-06-19T01:17:49;7.53;;;7.00;;
3066;SDS011;1544;48.834;9.194;2023-06-19T01:20:25;7.80;;;7.30;;
3066;SDS011;1544;48.834;9.194;2023-06-19T01:23:06;7.10;;;6.70;;
3066;SDS011;1544;48.834;9.194;2023-06-19T01:25:43;5.93;;;5.53;;
3066;SDS011;1544;48.834;9.194;2023-06-19T01:28:19;6.53;;;5.93;;
3066;SDS011;1544;48.834;9.194;2023-06-19T01:30:55;6.20;;;5.80;;
3066;SDS011;1544;48.834;9.194;2023-06-19T01:33:35;6.87;;;6.47;;
3066;SDS011;1544;48.834;9.194;2023-06-19T01:36:13;5.07;;;4.77;;
3066;SDS011;1544;48.834;9.194;2023-06-19T01:38:50;5.47;;;5.17;;
3066;SDS011;1544;48.834;9.194;2023-06-19T01:41:26;4.90;;;4.70;;
3066;SDS011;1544;48.834;9.194;2023-06-19T01:44:05;4.90;;;4.47;;
3066;SDS011;1544;48.834;9.194;2023-06-19T01:46:41;4.80;;;4.50;;
3066;SDS011;1544;48.834;9.194;2023-06-19T01:49:17;4.50;;;4.20;;
3066;SDS011;1544;48.834;9.194;2023-06-19T01:51:54;4.03;;;3.83;;
3066;SDS011;1544;48.834;9.194;2023-06-19T01:54:31;3.80;;;3.60;;
3066;SDS011;1544;48.834;9.194;2023-06-19T01:57:07;4.37;;;4.13;;
3066;SDS011;1544;48.834;9.194;2023-06-19T01:59:44;4.57;;;4.03;;
3066;SDS011;1544;48.834;9.194;2023-06-19T02:02:20;4.37;;;4.07;;
3066;SDS011;1544;48.834;9.194;2023-06-19T02:04:57;4.10;;;3.90;;
3066;SDS011;1544;48.834;9.194;2023-06-19T02:07:33;3.60;;;3.43;;
3066;SDS011;1544;48.834;9.194;2023-06-19T02:10:09;3.60;;;3.40;;
3066;SDS011;1544;48.834;9.194;2023-06-19T02:12:45;3.57;;;3.37;;
3066;SDS011;1544;48.834;9.194;2023-06-19T02:15:21;3.73;;;3.53;;
3066;SDS011;1544;48.834;9.194;2023-06-19T02:17:57;3.90;;;3.70;;
3066;SDS011;1544;48.834;9.194;2023-06-19T02:20:35;3.17;;;2.97;;
3066;SDS011;1544;48.834;9.194;2023-06-19T02:23:11;3.80;;;3.53;;
3066;SDS011;1544;48.834;9.194;2023-06-19T02:25:47;3.90;;;3.67;;
3066;SDS011;1544;48.834;9.194;2023-06-19T02:28:25;3.97;;;3.77;;
3066;SDS011;1544;48.834;9.194;2023-06-19T02:31:01;4.00;;;3.70;;
3066;SDS011;1544;48.834;9.194;2023-06-19T02:33:37;6.00;;;4.10;;
3066;SDS011;1544;48.834;9.194;2023-06-19T02:36:13;3.80;;;3.60;;
3066;SDS011;1544;48.834;9.194;2023-06-19T02:38:53;3.20;;;3.10;;
3066;SDS011;1544;48.834;9.194;2023-06-19T02:41:29;3.33;;;3.20;;
3066;SDS011;1544;48.834;9.194;2023-06-19T02:44:05;3.97;;;3.70;;
3066;SDS011;1544;48.834;9.194;2023-06-19T02:46:41;3.73;;;3.53;;
3066;SDS011;1544;48.834;9.194;2023-06-19T02:49:17;3.70;;;3.50;;
3066;SDS011;1544;48.834;9.194;2023-06-19T02:51:53;3.83;;;3.70;;
3066;SDS011;1544;48.834;9.194;2023-06-19T02:54:29;4.27;;;3.80;;
3066;SDS011;1544;48.834;9.194;2023-06-19T02:57:07;3.67;;;3.47;;
3066;SDS011;1544;48.834;9.194;2023-06-19T02:59:44;3.80;;;3.60;;
3066;SDS011;1544;48.834;9.194;2023-06-19T03:02:22;3.90;;;3.63;;
3066;SDS011;1544;48.834;9.194;2023-06-19T03:04:58;3.87;;;3.63;;
3066;SDS011;1544;48.834;9.194;2023-06-19T03:07:34;3.80;;;3.60;;
3066;SDS011;1544;48.834;9.194;2023-06-19T03:10:10;3.60;;;3.50;;
3066;SDS011;1544;48.834;9.194;2023-06-19T03:12:46;4.03;;;3.83;;
3066;SDS011;1544;48.834;9.194;2023-06-19T03:15:24;3.13;;;3.00;;
3066;SDS011;1544;48.834;9.194;2023-06-19T03:18:01;3.40;;;3.20;;
3066;SDS011;1544;48.834;9.194;2023-06-19T03:20:40;3.67;;;3.37;;
3066;SDS011;1544;48.834;9.194;2023-06-19T03:23:16;3.43;;;3.23;;
3066;SDS011;1544;48.834;9.194;2023-06-19T03:25:52;3.60;;;3.40;;
3066;SDS011;1544;48.834;9.194;2023-06-19T03:28:28;4.67;;;4.37;;
3066;SDS011;1544;48.834;9.194;2023-06-19T03:31:05;3.50;;;3.30;;
3066;SDS011;1544;48.834;9.194;2023-06-19T03:33:41;3.73;;;3.43;;
3066;SDS011;1544;48.834;9.194;2023-06-19T03:36:18;3.33;;;3.23;;
3066;SDS011;1544;48.834;9.194;2023-06-19T03:38:58;3.40;;;3.23;;
3066;SDS011;1544;48.834;9.194;2023-06-19T03:41:37;3.53;;;3.33;;
3066;SDS011;1544;48.834;9.194;2023-06-19T03:44:13;2.77;;;2.67;;
3066;SDS011;1544;48.834;9.194;2023-06-19T03:46:49;2.80;;;2.70;;
3066;SDS011;1544;48.834;9.194;2023-06-19T03:49:26;2.70;;;2.57;;
3066;SDS011;1544;48.834;9.194;2023-06-19T03:52:02;2.43;;;2.30;;
3066;SDS011;1544;48.834;9.194;2023-06-19T03:54:39;2.40;;;2.30;;
3066;SDS011;1544;48.834;9.194;2023-06-19T03:57:15;4.00;;;2.73;;
3066;SDS011;1544;48.834;9.194;2023-06-19T03:59:51;2.30;;;2.20;;
3066;SDS011;1544;48.834;9.194;2023-06-19T04:02:30;2.13;;;2.03;;
3066;SDS011;1544;48.834;9.194;2023-06-19T04:05:06;2.40;;;2.30;;
3066;SDS011;1544;48.834;9.194;2023-06-19T04:07:42;1.80;;;1.70;;
3066;SDS011;1544;48.834;9.194;2023-06-19T04:10:22;4.70;;;2.30;;
3066;SDS011;1544;48.834;9.194;2023-06-19T04:12:58;2.67;;;2.47;;
3066;SDS011;1544;48.834;9.194;2023-06-19T04:15:34;2.00;;;1.90;;
3066;SDS011;1544;48.834;9.194;2023-06-19T04:18:11;1.83;;;1.73;;
3066;SDS011;1544;48.834;9.194;2023-06-19T04:20:47;2.13;;;1.93;;
3066;SDS011;1544;48.834;9.194;2023-06-19T04:23:23;1.80;;;1.70;;
3066;SDS011;1544;48.834;9.194;2023-06-19T04:25:59;1.90;;;1.80;;
3066;SDS011;1544;48.834;9.194;2023-06-19T04:28:35;1.90;;;1.80;;
3066;SDS011;1544;48.834;9.194;2023-06-19T04:31:11;1.80;;;1.70;;
3066;SDS011;1544;48.834;9.194;2023-06-19T04:33:47;2.60;;;2.50;;
3066;SDS011;1544;48.834;9.194;2023-06-19T04:36:23;2.13;;;1.80;;
3066;SDS011;1544;48.834;9.194;2023-06-19T04:38:59;2.33;;;2.23;;
3066;SDS011;1544;48.834;9.194;2023-06-19T04:41:36;2.20;;;1.93;;
3066;SDS011;1544;48.834;9.194;2023-06-19T04:44:13;2.07;;;1.77;;
3066;SDS011;1544;48.834;9.194;2023-06-19T04:46:49;2.63;;;2.43;;
3066;SDS011;1544;48.834;9.194;2023-06-19T04:49:25;3.60;;;3.40;;
3066;SDS011;1544;48.834;9.194;2023-06-19T04:52:07;2.77;;;2.67;;
3066;SDS011;1544;48.834;9.194;2023-06-19T04:54:43;2.17;;;2.07;;
3066;SDS011;1544;48.834;9.194;2023-06-19T04:57:20;2.10;;;2.00;;
3066;SDS011;1544;48.834;9.194;2023-06-19T04:59:56;2.10;;;2.00;;
3066;SDS011;1544;48.834;9.194;2023-06-19T05:02:32;2.10;;;2.00;;
3066;SDS011;1544;48.834;9.194;2023-06-19T05:05:09;1.93;;;1.83;;
3066;SDS011;1544;48.834;9.194;2023-06-19T05:07:46;2.43;;;2.33;;
3066;SDS011;1544;48.834;9.194;2023-06-19T05:10:22;2.13;;;2.03;;
3066;SDS011;1544;48.834;9.194;2023-06-19T05:12:59;1.90;;;1.80;;
3066;SDS011;1544;48.834;9.194;2023-06-19T05:15:35;2.20;;;1.97;;
3066;SDS011;1544;48.834;9.194;2023-06-19T05:18:11;2.33;;;2.13;;
3066;SDS011;1544;48.834;9.194;2023-06-19T05:20:47;1.80;;;1.70;;
3066;SDS011;1544;48.834;9.194;2023-06-19T05:23:23;2.23;;;2.10;;
3066;SDS011;1544;48.834;9.194;2023-06-19T05:25:59;2.37;;;2.27;;
3066;SDS011;1544;48.834;9.194;2023-06-19T05:28:35;2.57;;;2.47;;
3066;SDS011;1544;48.834;9.194;2023-06-19T05:31:11;2.10;;;2.00;;
3066;SDS011;1544;48.834;9.194;2023-06-19T05:33:47;2.17;;;2.07;;
3066;SDS011;1544;48.834;9.194;2023-06-19T05:36:23;2.33;;;2.23;;
3066;SDS011;1544;48.834;9.194;2023-06-19T05:38:59;2.03;;;1.93;;
3066;SDS011;1544;48.834;9.194;2023-06-19T05:41:35;2.30;;;1.97;;
3066;SDS011;1544;48.834;9.194;2023-06-19T05:44:11;2.63;;;2.53;;
3066;SDS011;1544;48.834;9.194;2023-06-19T05:46:52;2.70;;;2.50;;
3066;SDS011;1544;48.834;9.194;2023-06-19T05:49:28;2.53;;;2.33;;
3066;SDS011;1544;48.834;9.194;2023-06-19T05:52:04;3.30;;;3.00;;
3066;SDS011;1544;48.834;9.194;2023-06-19T05:54:41;3.67;;;2.40;;
3066;SDS011;1544;48.834;9.194;2023-06-19T05:57:17;2.70;;;2.50;;
3066;SDS011;1544;48.834;9.194;2023-06-19T05:59:56;2.40;;;2.30;;
3066;SDS011;1544;48.834;9.194;2023-06-19T06:02:32;2.90;;;2.37;;
3066;SDS011;1544;48.834;9.194;2023-06-19T06:05:08;2.30;;;2.20;;
3066;SDS011;1544;48.834;9.194;2023-06-19T06:07:45;2.27;;;2.07;;
3066;SDS011;1544;48.834;9.194;2023-06-19T06:10:21;2.53;;;2.30;;
3066;SDS011;1544;48.834;9.194;2023-06-19T06:12:59;2.30;;;2.10;;
3066;SDS011;1544;48.834;9.194;2023-06-19T06:15:35;2.00;;;1.90;;
3066;SDS011;1544;48.834;9.194;2023-06-19T06:18:11;2.17;;;2.03;;
3066;SDS011;1544;48.834;9.194;2023-06-19T06:20:47;2.90;;;2.10;;
3066;SDS011;1544;48.834;9.194;2023-06-19T06:23:23;2.50;;;2.30;;
3066;SDS011;1544;48.834;9.194;2023-06-19T06:25:59;2.10;;;2.00;;
3066;SDS011;1544;48.834;9.194;2023-06-19T06:28:38;2.87;;;2.13;;
3066;SDS011;1544;48.834;9.194;2023-06-19T06:31:15;2.00;;;1.90;;
3066;SDS011;1544;48.834;9.194;2023-06-19T06:33:51;2.20;;;2.10;;
3066;SDS011;1544;48.834;9.194;2023-06-19T06:36:26;1.90;;;1.80;;
3066;SDS011;1544;48.834;9.194;2023-06-19T06:39:11;2.00;;;1.90;;
3066;SDS011;1544;48.834;9.194;2023-06-19T06:41:47;2.17;;;2.07;;
3066;SDS011;1544;48.834;9.194;2023-06-19T06:44:23;2.10;;;1.90;;
3066;SDS011;1544;48.834;9.194;2023-06-19T06:46:59;2.40;;;2.30;;
3066;SDS011;1544;48.834;9.194;2023-06-19T06:49:35;2.73;;;2.50;;
3066;SDS011;1544;48.834;9.194;2023-06-19T06:52:11;2.33;;;2.23;;
3066;SDS011;1544;48.834;9.194;2023-06-19T06:54:49;2.47;;;2.37;;
3066;SDS011;1544;48.834;9.194;2023-06-19T06:57:25;2.33;;;2.13;;
3066;SDS011;1544;48.834;9.194;2023-06-19T07:00:02;1.80;;;1.70;;
3066;SDS011;1544;48.834;9.194;2023-06-19T07:02:40;2.50;;;2.30;;
3066;SDS011;1544;48.834;9.194;2023-06-19T07:05:16;1.60;;;1.50;;
3066;SDS011;1544;48.834;9.194;2023-06-19T07:07:53;3.20;;;1.90;;
3066;SDS011;1544;48.834;9.194;2023-06-19T07:10:29;2.10;;;2.00;;
3066;SDS011;1544;48.834;9.194;2023-06-19T07:13:06;1.60;;;1.50;;
3066;SDS011;1544;48.834;9.194;2023-06-19T07:15:42;2.10;;;1.90;;
3066;SDS011;1544;48.834;9.194;2023-06-19T07:18:18;1.60;;;1.50;;
3066;SDS011;1544;48.834;9.194;2023-06-19T07:20:54;2.60;;;1.70;;
3066;SDS011;1544;48.834;9.194;2023-06-19T07:23:30;1.73;;;1.63;;
3066;SDS011;1544;48.834;9.194;2023-06-19T07:26:06;1.40;;;1.30;;
3066;SDS011;1544;48.834;9.194;2023-06-19T07:28:42;1.80;;;1.70;;
3066;SDS011;1544;48.834;9.194;2023-06-19T07:31:19;1.80;;;1.70;;
3066;SDS011;1544;48.834;9.194;2023-06-19T07:33:55;1.67;;;1.57;;
3066;SDS011;1544;48.834;9.194;2023-06-19T07:36:31;1.90;;;1.80;;
3066;SDS011;1544;48.834;9.194;2023-06-19T07:39:07;1.87;;;1.70;;
3066;SDS011;1544;48.834;9.194;2023-06-19T07:41:43;2.00;;;1.90;;
3066;SDS011;1544;48.834;9.194;2023-06-19T07:44:21;1.80;;;1.70;;
3066;SDS011;1544;48.834;9.194;2023-06-19T07:46:56;1.87;;;1.60;;
3066;SDS011;1544;48.834;9.194;2023-06-19T07:49:32;1.70;;;1.60;;
3066;SDS011;1544;48.834;9.194;2023-06-19T07:52:09;1.70;;;1.60;;
3066;SDS011;1544;48.834;9.194;2023-06-19T07:54:51;1.93;;;1.83;;
3066;SDS011;1544;48.834;9.194;2023-06-19T07:57:30;1.60;;;1.50;;
3066;SDS011;1544;48.834;9.194;2023-06-19T08:00:06;1.87;;;1.77;;
3066;SDS011;1544;48.834;9.194;2023-06-19T08:02:46;2.00;;;1.90;;
3066;SDS011;1544;48.834;9.194;2023-06-19T08:05:22;1.60;;;1.50;;
3066;SDS011;1544;48.834;9.194;2023-06-19T08:07:59;1.97;;;1.87;;
3066;SDS011;1544;48.834;9.194;2023-06-19T08:10:35;3.27;;;1.70;;
3066;SDS011;1544;48.834;9.194;2023-06-19T08:13:11;1.30;;;1.30;;
3066;SDS011;1544;48.834;9.194;2023-06-19T08:15:47;2.30;;;1.60;;
3066;SDS011;1544;48.834;9.194;2023-06-19T08:18:23;1.70;;;1.60;;
3066;SDS011;1544;48.834;9.194;2023-06-19T08:20:59;1.60;;;1.50;;
3066;SDS011;1544;48.834;9.194;2023-06-19T08:23:35;1.70;;;1.60;;
3066;SDS011;1544;48.834;9.194;2023-06-19T08:26:13;3.23;;;1.63;;
3066;SDS011;1544;48.834;9.194;2023-06-19T08:28:49;1.80;;;1.70;;
3066;SDS011;1544;48.834;9.194;2023-06-19T08:31:25;1.60;;;1.50;;
3066;SDS011;1544;48.834;9.194;2023-06-19T08:34:03;2.37;;;1.57;;
3066;SDS011;1544;48.834;9.194;2023-06-19T08:36:43;1.67;;;1.57;;
3066;SDS011;1544;48.834;9.194;2023-06-19T08:39:19;1.90;;;1.80;;
3066;SDS011;1544;48.834;9.194;2023-06-19T08:41:57;3.40;;;1.70;;
3066;SDS011;1544;48.834;9.194;2023-06-19T08:44:36;1.70;;;1.60;;
3066;SDS011;1544;48.834;9.194;2023-06-19T08:47:13;1.93;;;1.83;;
3066;SDS011;1544;48.834;9.194;2023-06-19T08:49:50;2.20;;;2.00;;
3066;SDS011;1544;48.834;9.194;2023-06-19T08:52:26;1.90;;;1.80;;
3066;SDS011;1544;48.834;9.194;2023-06-19T08:55:02;2.00;;;1.90;;
3066;SDS011;1544;48.834;9.194;2023-06-19T08:57:38;1.70;;;1.60;;
3066;SDS011;1544;48.834;9.194;2023-06-19T09:00:24;1.90;;;1.80;;
3066;SDS011;1544;48.834;9.194;2023-06-19T09:03:05;1.80;;;1.70;;
3066;SDS011;1544;48.834;9.194;2023-06-19T09:05:48;2.30;;;2.10;;
3066;SDS011;1544;48.834;9.194;2023-06-19T09:08:27;2.33;;;2.23;;
3066;SDS011;1544;48.834;9.194;2023-06-19T09:11:04;2.70;;;2.30;;
3066;SDS011;1544;48.834;9.194;2023-06-19T09:13:55;2.67;;;2.47;;
3066;SDS011;1544;48.834;9.194;2023-06-19T09:16:39;1.90;;;1.80;;
3066;SDS011;1544;48.834;9.194;2023-06-19T09:19:20;2.40;;;2.23;;
3066;SDS011;1544;48.834;9.194;2023-06-19T09:22:00;2.20;;;2.10;;
3066;SDS011;1544;48.834;9.194;2023-06-19T09:24:38;2.00;;;1.90;;
3066;SDS011;1544;48.834;9.194;2023-06-19T09:27:16;2.00;;;1.90;;
3066;SDS011;1544;48.834;9.194;2023-06-19T09:29:54;2.23;;;2.13;;
3066;SDS011;1544;48.834;9.194;2023-06-19T09:32:31;2.50;;;2.30;;
3066;SDS011;1544;48.834;9.194;2023-06-19T09:35:07;4.83;;;2.60;;
3066;SDS011;1544;48.834;9.194;2023-06-19T09:37:43;1.90;;;1.80;;
3066;SDS011;1544;48.834;9.194;2023-06-19T09:40:21;2.50;;;2.30;;
3066;SDS011;1544;48.834;9.194;2023-06-19T09:42:58;2.60;;;2.50;;
3066;SDS011;1544;48.834;9.194;2023-06-19T09:45:38;2.00;;;1.90;;
3066;SDS011;1544;48.834;9.194;2023-06-19T09:48:14;2.13;;;2.03;;
3066;SDS011;1544;48.834;9.194;2023-06-19T09:51:17;2.33;;;2.23;;
3066;SDS011;1544;48.834;9.194;2023-06-19T09:54:01;1.93;;;1.83;;
3066;SDS011;1544;48.834;9.194;2023-06-19T09:56:39;2.73;;;2.57;;
3066;SDS011;1544;48.834;9.194;2023-06-19T09:59:16;3.07;;;2.87;;
3066;SDS011;1544;48.834;9.194;2023-06-19T10:01:53;1.90;;;1.80;;
3066;SDS011;1544;48.834;9.194;2023-06-19T10:04:30;2.93;;;2.60;;
3066;SDS011;1544;48.834;9.194;2023-06-19T10:07:14;2.60;;;2.40;;
3066;SDS011;1544;48.834;9.194;2023-06-19T10:10:03;2.90;;;2.80;;
3066;SDS011;1544;48.834;9.194;2023-06-19T10:12:43;2.73;;;2.53;;
3066;SDS011;1544;48.834;9.194;2023-06-19T10:15:28;3.20;;;2.80;;
3066;SDS011;1544;48.834;9.194;2023-06-19T10:18:05;3.03;;;2.93;;
3066;SDS011;1544;48.834;9.194;2023-06-19T10:20:43;3.00;;;2.90;;
3066;SDS011;1544;48.834;9.194;2023-06-19T10:23:23;2.50;;;2.40;;
3066;SDS011;1544;48.834;9.194;2023-06-19T10:26:00;3.20;;;3.00;;
3066;SDS011;1544;48.834;9.194;2023-06-19T10:28:38;3.20;;;3.00;;
3066;SDS011;1544;48.834;9.194;2023-06-19T10:31:15;2.63;;;2.53;;
3066;SDS011;1544;48.834;9.194;2023-06-19T10:33:53;2.60;;;2.40;;
3066;SDS011;1544;48.834;9.194;2023-06-19T10:36:29;2.93;;;2.50;;
3066;SDS011;1544;48.834;9.194;2023-06-19T10:39:05;3.00;;;2.80;;
3066;SDS011;1544;48.834;9.194;2023-06-19T10:41:42;3.23;;;3.03;;
3066;SDS011;1544;48.834;9.194;2023-06-19T10:44:18;2.70;;;2.50;;
3066;SDS011;1544;48.834;9.194;2023-06-19T10:46:58;2.73;;;2.63;;
3066;SDS011;1544;48.834;9.194;2023-06-19T10:49:35;2.70;;;2.43;;
3066;SDS011;1544;48.834;9.194;2023-06-19T10:52:11;2.30;;;2.20;;
3066;SDS011;1544;48.834;9.194;2023-06-19T10:54:52;2.60;;;2.50;;
3066;SDS011;1544;48.834;9.194;2023-06-19T10:57:30;2.40;;;2.30;;
3066;SDS011;1544;48.834;9.194;2023-06-19T11:00:07;2.67;;;2.47;;
3066;SDS011;1544;48.834;9.194;2023-06-19T11:02:48;2.60;;;2.50;;
3066;SDS011;1544;48.834;9.194;2023-06-19T11:05:24;2.73;;;2.27;;
3066;SDS011;1544;48.834;9.194;2023-06-19T11:08:02;2.67;;;2.57;;
3066;SDS011;1544;48.834;9.194;2023-06-19T11:10:39;2.90;;;2.70;;
3066;SDS011;1544;48.834;9.194;2023-06-19T11:13:15;2.70;;;2.60;;
3066;SDS011;1544;48.834;9.194;2023-06-19T11:15:53;3.20;;;3.00;;
3066;SDS011;1544;48.834;9.194;2023-06-19T11:18:29;2.97;;;2.60;;
3066;SDS011;1544;48.834;9.194;2023-06-19T11:21:05;3.10;;;3.00;;
3066;SDS011;1544;48.834;9.194;2023-06-19T11:23:41;2.93;;;2.83;;
3066;SDS011;1544;48.834;9.194;2023-06-19T11:26:24;3.23;;;3.13;;
3066;SDS011;1544;48.834;9.194;2023-06-19T11:29:00;2.40;;;2.20;;
3066;SDS011;1544;48.834;9.194;2023-06-19T11:31:37;2.60;;;2.47;;
3066;SDS011;1544;48.834;9.194;2023-06-19T11:34:14;2.83;;;2.63;;
3066;SDS011;1544;48.834;9.194;2023-06-19T11:36:52;2.70;;;2.60;;
3066;SDS011;1544;48.834;9.194;2023-06-19T11:39:28;2.60;;;2.40;;
3066;SDS011;1544;48.834;9.194;2023-06-19T11:42:05;2.53;;;2.37;;
3066;SDS011;1544;48.834;9.194;2023-06-19T11:44:59;2.83;;;2.73;;
3066;SDS011;1544;48.834;9.194;2023-06-19T11:47:42;3.10;;;2.80;;
3066;SDS011;1544;48.834;9.194;2023-06-19T11:50:27;2.80;;;2.70;;
3066;SDS011;1544;48.834;9.194;2023-06-19T11:53:05;2.90;;;2.80;;
3066;SDS011;1544;48.834;9.194;2023-06-19T11:55:41;2.50;;;2.40;;
3066;SDS011;1544;48.834;9.194;2023-06-19T11:58:19;2.97;;;2.80;;
3066;SDS011;1544;48.834;9.194;2023-06-19T12:00:56;3.27;;;3.13;;
3066;SDS011;1544;48.834;9.194;2023-06-19T12:03:32;3.20;;;3.00;;
3066;SDS011;1544;48.834;9.194;2023-06-19T12:06:08;3.40;;;3.30;;
3066;SDS011;1544;48.834;9.194;2023-06-19T12:08:45;2.77;;;2.60;;
3066;SDS011;1544;48.834;9.194;2023-06-19T12:11:21;3.73;;;3.43;;
3066;SDS011;1544;48.834;9.194;2023-06-19T12:13:57;2.90;;;2.80;;
3066;SDS011;1544;48.834;9.194;2023-06-19T12:16:33;2.80;;;2.60;;
3066;SDS011;1544;48.834;9.194;2023-06-19T12:19:09;2.83;;;2.73;;
3066;SDS011;1544;48.834;9.194;2023-06-19T12:21:46;3.20;;;3.00;;
3066;SDS011;1544;48.834;9.194;2023-06-19T12:24:22;2.63;;;2.43;;
3066;SDS011;1544;48.834;9.194;2023-06-19T12:26:58;2.77;;;2.67;;
3066;SDS011;1544;48.834;9.194;2023-06-19T12:29:34;3.03;;;2.83;;
3066;SDS011;1544;48.834;9.194;2023-06-19T12:32:10;2.60;;;2.50;;
3066;SDS011;1544;48.834;9.194;2023-06-19T12:34:46;3.03;;;2.83;;
3066;SDS011;1544;48.834;9.194;2023-06-19T12:37:22;2.30;;;2.20;;
3066;SDS011;1544;48.834;9.194;2023-06-19T12:39:59;4.97;;;2.70;;
3066;SDS011;1544;48.834;9.194;2023-06-19T12:42:35;2.83;;;2.73;;
3066;SDS011;1544;48.834;9.194;2023-06-19T12:45:12;3.10;;;3.00;;
3066;SDS011;1544;48.834;9.194;2023-06-19T12:47:48;2.40;;;2.30;;
3066;SDS011;1544;48.834;9.194;2023-06-19T12:50:24;2.40;;;2.30;;
3066;SDS011;1544;48.834;9.194;2023-06-19T12:53:00;3.27;;;3.07;;
3066;SDS011;1544;48.834;9.194;2023-06-19T12:55:36;2.77;;;2.63;;
3066;SDS011;1544;48.834;9.194;2023-06-19T12:58:32;3.40;;;3.20;;
3066;SDS011;1544;48.834;9.194;2023-06-19T13:01:08;3.20;;;3.00;;
3066;SDS011;1544;48.834;9.194;2023-06-19T13:03:44;3.50;;;3.30;;
3066;SDS011;1544;48.834;9.194;2023-06-19T13:06:20;2.53;;;2.43;;
3066;SDS011;1544;48.834;9.194;2023-06-19T13:08:56;3.17;;;2.97;;
3066;SDS011;1544;48.834;9.194;2023-06-19T13:11:32;2.63;;;2.43;;
3066;SDS011;1544;48.834;9.194;2023-06-19T13:14:09;3.43;;;2.70;;
3066;SDS011;1544;48.834;9.194;2023-06-19T13:16:45;3.40;;;2.80;;
3066;SDS011;1544;48.834;9.194;2023-06-19T13:19:22;2.93;;;2.70;;
3066;SDS011;1544;48.834;9.194;2023-06-19T13:21:58;2.80;;;2.60;;
3066;SDS011;1544;48.834;9.194;2023-06-19T13:24:34;3.60;;;2.63;;
3066;SDS011;1544;48.834;9.194;2023-06-19T13:27:10;2.90;;;2.80;;
3066;SDS011;1544;48.834;9.194;2023-06-19T13:29:46;3.10;;;2.57;;
3066;SDS011;1544;48.834;9.194;2023-06-19T13:32:21;2.60;;;2.50;;
3066;SDS011;1544;48.834;9.194;2023-06-19T13:34:57;3.30;;;3.10;;
3066;SDS011;1544;48.834;9.194;2023-06-19T13:37:34;2.60;;;2.50;;
3066;SDS011;1544;48.834;9.194;2023-06-19T13:40:11;2.47;;;2.37;;
3066;SDS011;1544;48.834;9.194;2023-06-19T13:42:47;2.40;;;2.30;;
3066;SDS011;1544;48.834;9.194;2023-06-19T13:45:23;2.10;;;2.00;;
3066;SDS011;1544;48.834;9.194;2023-06-19T13:47:59;2.47;;;2.33;;
3066;SDS011;1544;48.834;9.194;2023-06-19T13:50:36;2.57;;;2.47;;
3066;SDS011;1544;48.834;9.194;2023-06-19T13:53:12;3.00;;;2.70;;
3066;SDS011;1544;48.834;9.194;2023-06-19T13:55:48;3.23;;;3.03;;
3066;SDS011;1544;48.834;9.194;2023-06-19T13:58:24;2.63;;;2.53;;
3066;SDS011;1544;48.834;9.194;2023-06-19T14:01:00;3.30;;;2.87;;
3066;SDS011;1544;48.834;9.194;2023-06-19T14:03:37;2.57;;;2.47;;
3066;SDS011;1544;48.834;9.194;2023-06-19T14:06:14;2.50;;;2.33;;
3066;SDS011;1544;48.834;9.194;2023-06-19T14:08:51;2.57;;;2.47;;
3066;SDS011;1544;48.834;9.194;2023-06-19T14:11:27;2.50;;;2.40;;
3066;SDS011;1544;48.834;9.194;2023-06-19T14:14:04;2.30;;;2.20;;
3066;SDS011;1544;48.834;9.194;2023-06-19T14:16:41;2.40;;;2.30;;
3066;SDS011;1544;48.834;9.194;2023-06-19T14:19:17;2.63;;;2.53;;
3066;SDS011;1544;48.834;9.194;2023-06-19T14:21:53;2.70;;;2.50;;
3066;SDS011;1544;48.834;9.194;2023-06-19T14:24:28;2.60;;;2.40;;
3066;SDS011;1544;48.834;9.194;2023-06-19T14:27:05;2.90;;;2.70;;
3066;SDS011;1544;48.834;9.194;2023-06-19T14:29:41;3.40;;;3.20;;
3066;SDS011;1544;48.834;9.194;2023-06-19T14:32:17;3.00;;;2.77;;
3066;SDS011;1544;48.834;9.194;2023-06-19T14:34:53;2.70;;;2.60;;
3066;SDS011;1544;48.834;9.194;2023-06-19T14:37:29;2.30;;;2.20;;
3066;SDS011;1544;48.834;9.194;2023-06-19T14:40:05;2.40;;;2.30;;
3066;SDS011;1544;48.834;9.194;2023-06-19T14:42:42;2.83;;;2.73;;
3066;SDS011;1544;48.834;9.194;2023-06-19T14:45:18;2.93;;;2.83;;
3066;SDS011;1544;48.834;9.194;2023-06-19T14:47:54;2.73;;;2.63;;
3066;SDS011;1544;48.834;9.194;2023-06-19T14:50:30;2.43;;;2.23;;
3066;SDS011;1544;48.834;9.194;2023-06-19T14:53:06;3.10;;;3.00;;
3066;SDS011;1544;48.834;9.194;2023-06-19T14:55:42;3.03;;;2.83;;
3066;SDS011;1544;48.834;9.194;2023-06-19T14:58:21;2.60;;;2.50;;
3066;SDS011;1544;48.834;9.194;2023-06-19T15:00:57;2.60;;;2.50;;
3066;SDS011;1544;48.834;9.194;2023-06-19T15:03:33;2.70;;;2.50;;
3066;SDS011;1544;48.834;9.194;2023-06-19T15:06:11;2.40;;;2.30;;
3066;SDS011;1544;48.834;9.194;2023-06-19T15:08:47;2.60;;;2.50;;
3066;SDS011;1544;48.834;9.194;2023-06-19T15:11:23;4.00;;;2.83;;
3066;SDS011;1544;48.834;9.194;2023-06-19T15:13:59;2.73;;;2.63;;
3066;SDS011;1544;48.834;9.194;2023-06-19T15:16:35;3.00;;;2.80;;
3066;SDS011;1544;48.834;9.194;2023-06-19T15:19:12;3.07;;;2.97;;
3066;SDS011;1544;48.834;9.194;2023-06-19T15:21:48;2.40;;;2.30;;
3066;SDS011;1544;48.834;9.194;2023-06-19T15:24:24;2.77;;;2.67;;
3066;SDS011;1544;48.834;9.194;2023-06-19T15:27:00;2.50;;;2.40;;
3066;SDS011;1544;48.834;9.194;2023-06-19T15:29:36;2.33;;;2.23;;
3066;SDS011;1544;48.834;9.194;2023-06-19T15:32:14;2.33;;;2.23;;
3066;SDS011;1544;48.834;9.194;2023-06-19T15:34:49;2.30;;;2.20;;
3066;SDS011;1544;48.834;9.194;2023-06-19T15:37:25;3.13;;;2.97;;
3066;SDS011;1544;48.834;9.194;2023-06-19T15:40:02;3.43;;;2.23;;
3066;SDS011;1544;48.834;9.194;2023-06-19T15:42:39;3.03;;;2.93;;
3066;SDS011;1544;48.834;9.194;2023-06-19T15:45:15;2.83;;;2.73;;
3066;SDS011;1544;48.834;9.194;2023-06-19T15:47:51;2.87;;;2.70;;
3066;SDS011;1544;48.834;9.194;2023-06-19T15:50:28;2.90;;;2.80;;
3066;SDS011;1544;48.834;9.194;2023-06-19T15:53:04;2.30;;;2.20;;
3066;SDS011;1544;48.834;9.194;2023-06-19T15:55:40;2.27;;;2.17;;
3066;SDS011;1544;48.834;9.194;2023-06-19T15:58:17;3.20;;;3.10;;
3066;SDS011;1544;48.834;9.194;2023-06-19T16:00:53;2.50;;;2.40;;
3066;SDS011;1544;48.834;9.194;2023-06-19T16:03:29;2.60;;;2.50;;
3066;SDS011;1544;48.834;9.194;2023-06-19T16:06:08;3.33;;;2.60;;
3066;SDS011;1544;48.834;9.194;2023-06-19T16:08:44;2.63;;;2.50;;
3066;SDS011;1544;48.834;9.194;2023-06-19T16:11:20;2.33;;;2.20;;
3066;SDS011;1544;48.834;9.194;2023-06-19T16:13:56;2.57;;;2.40;;
3066;SDS011;1544;48.834;9.194;2023-06-19T16:16:32;3.40;;;3.10;;